Elmer, Pennsylvania
Current Conditions -  °F | °C
As of 4:35 AM on Sunday 26 Oct 2014 (Local Time) from KN38 Reporting Station
Overcast Overcast  
Wind Chill:   Ceiling: 3700
Heat Index:   Visibility: 10mi
Dew Point:   Wind: 8mph
Humidity: 66%   Direction: 270°W
Pressure: 29.68"   Gusts: NA
Location:  41.9252°N, 77.5198°W
Report Text: KN38 260835Z AUTO 27007KT 10SM BKN037 BKN050 OVC060 08/02 A2968 RMK AO2
Loading
Personal Weather Stations






























Interactive Weather Map
Tropical Storm Tracking
New forecast layout! Learn more

10-Day Weather Forecast

Advertisements
Track Severe Weather on mobile